sensor_id;sensor_type;location;lat;lon;timestamp;pressure;altitude;pressure_sealevel;temperature;humidity
40372;BME280;28564;53.346;-6.554;2022-10-17T00:02:25;99009.32;;;14.72;49.69
40372;BME280;28564;53.346;-6.554;2022-10-17T00:04:52;98998.12;;;14.44;49.58
40372;BME280;28564;53.346;-6.554;2022-10-17T00:07:20;98994.00;;;14.70;49.66
40372;BME280;28564;53.346;-6.554;2022-10-17T00:09:47;98982.95;;;14.69;49.57
40372;BME280;28564;53.346;-6.554;2022-10-17T00:12:15;98991.23;;;14.20;49.48
40372;BME280;28564;53.346;-6.554;2022-10-17T00:14:42;98992.70;;;14.43;49.55
40372;BME280;28564;53.346;-6.554;2022-10-17T00:17:09;98997.74;;;14.18;49.49
40372;BME280;28564;53.346;-6.554;2022-10-17T00:19:36;98999.66;;;14.16;49.49
40372;BME280;28564;53.346;-6.554;2022-10-17T00:22:03;99009.97;;;14.16;49.42
40372;BME280;28564;53.346;-6.554;2022-10-17T00:24:30;99008.73;;;14.39;49.48
40372;BME280;28564;53.346;-6.554;2022-10-17T00:26:57;99016.96;;;14.37;49.61
40372;BME280;28564;53.346;-6.554;2022-10-17T00:29:25;99021.20;;;14.65;49.61
40372;BME280;28564;53.346;-6.554;2022-10-17T00:31:53;99024.77;;;14.61;49.83
40372;BME280;28564;53.346;-6.554;2022-10-17T00:34:21;99020.21;;;14.32;49.88
40372;BME280;28564;53.346;-6.554;2022-10-17T00:36:48;99024.26;;;14.58;49.94
40372;BME280;28564;53.346;-6.554;2022-10-17T00:39:15;99033.23;;;14.57;49.95
40372;BME280;28564;53.346;-6.554;2022-10-17T00:41:42;99034.72;;;14.55;49.93
40372;BME280;28564;53.346;-6.554;2022-10-17T00:45:02;99048.80;;;14.31;49.92
40372;BME280;28564;53.346;-6.554;2022-10-17T00:47:32;99050.79;;;14.32;49.79
40372;BME280;28564;53.346;-6.554;2022-10-17T00:50:02;99040.04;;;14.58;49.79
40372;BME280;28564;53.346;-6.554;2022-10-17T00:52:31;99044.18;;;14.58;49.76
40372;BME280;28564;53.346;-6.554;2022-10-17T00:55:01;99037.50;;;14.58;49.68
40372;BME280;28564;53.346;-6.554;2022-10-17T00:57:31;99038.13;;;14.32;49.61
40372;BME280;28564;53.346;-6.554;2022-10-17T00:59:58;99037.55;;;14.30;49.50
40372;BME280;28564;53.346;-6.554;2022-10-17T01:02:28;99043.42;;;14.59;49.32
40372;BME280;28564;53.346;-6.554;2022-10-17T01:04:55;99057.79;;;14.33;49.24
40372;BME280;28564;53.346;-6.554;2022-10-17T01:07:24;99047.50;;;14.60;49.21
40372;BME280;28564;53.346;-6.554;2022-10-17T01:09:52;99040.33;;;14.55;48.94
40372;BME280;28564;53.346;-6.554;2022-10-17T01:12:21;99061.00;;;14.57;48.80
40372;BME280;28564;53.346;-6.554;2022-10-17T01:15:00;99081.83;;;14.11;48.68
40372;BME280;28564;53.346;-6.554;2022-10-17T01:17:36;99080.44;;;14.34;48.72
40372;BME280;28564;53.346;-6.554;2022-10-17T01:20:29;99084.25;;;14.63;48.72
40372;BME280;28564;53.346;-6.554;2022-10-17T01:23:17;99091.63;;;14.13;48.72
40372;BME280;28564;53.346;-6.554;2022-10-17T01:25:55;99081.43;;;14.35;48.55
40372;BME280;28564;53.346;-6.554;2022-10-17T01:29:00;99088.19;;;14.60;48.30
40372;BME280;28564;53.346;-6.554;2022-10-17T01:31:35;99102.66;;;14.39;48.18
40372;BME280;28564;53.346;-6.554;2022-10-17T01:34:09;99108.71;;;14.68;48.30
40372;BME280;28564;53.346;-6.554;2022-10-17T01:36:46;99119.29;;;14.75;48.54
40372;BME280;28564;53.346;-6.554;2022-10-17T01:39:21;99117.61;;;14.62;48.58
40372;BME280;28564;53.346;-6.554;2022-10-17T01:41:54;99112.65;;;14.38;48.57
40372;BME280;28564;53.346;-6.554;2022-10-17T01:44:28;99111.57;;;14.35;48.56
40372;BME280;28564;53.346;-6.554;2022-10-17T01:47:03;99104.04;;;14.30;48.74
40372;BME280;28564;53.346;-6.554;2022-10-17T01:49:33;99105.55;;;14.22;48.87
40372;BME280;28564;53.346;-6.554;2022-10-17T01:52:05;99106.14;;;14.41;48.99
40372;BME280;28564;53.346;-6.554;2022-10-17T01:54:39;99105.72;;;14.14;49.11
40372;BME280;28564;53.346;-6.554;2022-10-17T01:57:12;99114.08;;;14.63;49.19
40372;BME280;28564;53.346;-6.554;2022-10-17T01:59:43;99114.96;;;14.35;49.27
40372;BME280;28564;53.346;-6.554;2022-10-17T02:02:13;99117.08;;;14.67;49.15
40372;BME280;28564;53.346;-6.554;2022-10-17T02:04:43;99113.57;;;14.32;48.87
40372;BME280;28564;53.346;-6.554;2022-10-17T02:07:12;99117.26;;;14.49;48.67
40372;BME280;28564;53.346;-6.554;2022-10-17T02:09:39;99116.83;;;14.61;48.33
40372;BME280;28564;53.346;-6.554;2022-10-17T02:12:19;99112.10;;;14.70;48.20
40372;BME280;28564;53.346;-6.554;2022-10-17T02:15:02;99104.63;;;14.75;48.11
40372;BME280;28564;53.346;-6.554;2022-10-17T02:17:43;99108.76;;;14.68;48.21
40372;BME280;28564;53.346;-6.554;2022-10-17T02:20:20;99108.94;;;14.63;47.93
40372;BME280;28564;53.346;-6.554;2022-10-17T02:22:55;99109.80;;;14.57;48.03
40372;BME280;28564;53.346;-6.554;2022-10-17T02:25:33;99103.01;;;14.50;47.94
40372;BME280;28564;53.346;-6.554;2022-10-17T02:28:12;99106.24;;;14.66;48.07
40372;BME280;28564;53.346;-6.554;2022-10-17T02:30:45;99103.65;;;14.61;48.02
40372;BME280;28564;53.346;-6.554;2022-10-17T02:33:19;99099.22;;;14.41;47.92
40372;BME280;28564;53.346;-6.554;2022-10-17T02:35:52;99093.65;;;14.61;47.82
40372;BME280;28564;53.346;-6.554;2022-10-17T02:38:22;99092.74;;;14.57;48.01
40372;BME280;28564;53.346;-6.554;2022-10-17T02:40:52;99093.76;;;14.35;48.03
40372;BME280;28564;53.346;-6.554;2022-10-17T02:43:21;99095.09;;;14.56;47.98
40372;BME280;28564;53.346;-6.554;2022-10-17T02:45:50;99107.99;;;14.32;47.77
40372;BME280;28564;53.346;-6.554;2022-10-17T02:48:24;99104.36;;;14.82;47.86
40372;BME280;28564;53.346;-6.554;2022-10-17T02:50:59;99106.98;;;14.33;47.86
40372;BME280;28564;53.346;-6.554;2022-10-17T02:53:34;99114.34;;;14.53;47.18
40372;BME280;28564;53.346;-6.554;2022-10-17T02:56:09;99104.59;;;14.34;46.82
40372;BME280;28564;53.346;-6.554;2022-10-17T02:58:42;99102.39;;;14.37;46.83
40372;BME280;28564;53.346;-6.554;2022-10-17T03:01:13;99111.46;;;14.33;46.90
40372;BME280;28564;53.346;-6.554;2022-10-17T03:03:40;99102.87;;;14.54;46.58
40372;BME280;28564;53.346;-6.554;2022-10-17T03:06:08;99114.21;;;14.54;46.45
40372;BME280;28564;53.346;-6.554;2022-10-17T03:08:35;99111.17;;;14.81;46.47
40372;BME280;28564;53.346;-6.554;2022-10-17T03:11:02;99117.64;;;14.38;46.43
40372;BME280;28564;53.346;-6.554;2022-10-17T03:13:30;99113.15;;;14.38;46.43
40372;BME280;28564;53.346;-6.554;2022-10-17T03:15:57;99124.28;;;14.41;46.44
40372;BME280;28564;53.346;-6.554;2022-10-17T03:18:24;99131.36;;;14.68;46.08
40372;BME280;28564;53.346;-6.554;2022-10-17T03:20:51;99122.90;;;14.48;45.82
40372;BME280;28564;53.346;-6.554;2022-10-17T03:23:19;99131.46;;;14.99;45.51
40372;BME280;28564;53.346;-6.554;2022-10-17T03:25:46;99118.45;;;14.95;44.75
40372;BME280;28564;53.346;-6.554;2022-10-17T03:28:13;99117.35;;;14.69;44.69
40372;BME280;28564;53.346;-6.554;2022-10-17T03:30:41;99127.05;;;14.37;44.84
40372;BME280;28564;53.346;-6.554;2022-10-17T03:33:08;99135.35;;;14.27;44.89
40372;BME280;28564;53.346;-6.554;2022-10-17T03:35:37;99141.38;;;14.16;45.05
40372;BME280;28564;53.346;-6.554;2022-10-17T03:38:05;99141.85;;;14.58;45.15
40372;BME280;28564;53.346;-6.554;2022-10-17T03:40:32;99150.04;;;14.28;45.20
40372;BME280;28564;53.346;-6.554;2022-10-17T03:42:59;99157.96;;;14.09;44.96
40372;BME280;28564;53.346;-6.554;2022-10-17T03:45:26;99170.62;;;14.52;44.89
40372;BME280;28564;53.346;-6.554;2022-10-17T03:47:53;99164.39;;;14.25;44.75
40372;BME280;28564;53.346;-6.554;2022-10-17T03:50:20;99181.94;;;14.48;45.06
40372;BME280;28564;53.346;-6.554;2022-10-17T03:52:48;99175.72;;;13.90;45.32
40372;BME280;28564;53.346;-6.554;2022-10-17T03:55:16;99173.47;;;14.30;45.36
40372;BME280;28564;53.346;-6.554;2022-10-17T03:57:43;99173.84;;;14.24;45.44
40372;BME280;28564;53.346;-6.554;2022-10-17T04:00:11;99181.08;;;13.93;45.32
40372;BME280;28564;53.346;-6.554;2022-10-17T04:02:39;99180.64;;;14.23;45.30
40372;BME280;28564;53.346;-6.554;2022-10-17T04:05:07;99188.31;;;14.21;45.24
40372;BME280;28564;53.346;-6.554;2022-10-17T04:07:34;99189.20;;;14.21;45.03
40372;BME280;28564;53.346;-6.554;2022-10-17T04:10:02;99188.52;;;14.15;44.97
40372;BME280;28564;53.346;-6.554;2022-10-17T04:12:29;99188.89;;;13.87;45.15
40372;BME280;28564;53.346;-6.554;2022-10-17T04:14:56;99195.25;;;13.84;44.83
40372;BME280;28564;53.346;-6.554;2022-10-17T04:17:23;99205.43;;;14.07;44.70
40372;BME280;28564;53.346;-6.554;2022-10-17T04:19:50;99200.13;;;14.07;44.41
40372;BME280;28564;53.346;-6.554;2022-10-17T04:22:17;99215.55;;;13.80;44.25
40372;BME280;28564;53.346;-6.554;2022-10-17T04:24:44;99223.04;;;14.05;44.34
40372;BME280;28564;53.346;-6.554;2022-10-17T04:27:12;99231.75;;;14.08;44.35
40372;BME280;28564;53.346;-6.554;2022-10-17T04:29:39;99237.00;;;14.07;44.39
40372;BME280;28564;53.346;-6.554;2022-10-17T04:32:06;99264.25;;;14.10;44.41
40372;BME280;28564;53.346;-6.554;2022-10-17T04:34:33;99255.51;;;14.01;44.61
40372;BME280;28564;53.346;-6.554;2022-10-17T04:37:00;99269.58;;;13.94;44.77
40372;BME280;28564;53.346;-6.554;2022-10-17T04:39:28;99273.94;;;13.72;44.58
40372;BME280;28564;53.346;-6.554;2022-10-17T04:41:55;99281.21;;;14.02;44.75
40372;BME280;28564;53.346;-6.554;2022-10-17T04:44:23;99276.97;;;14.02;44.43
40372;BME280;28564;53.346;-6.554;2022-10-17T04:46:50;99293.64;;;14.02;44.49
40372;BME280;28564;53.346;-6.554;2022-10-17T04:49:17;99311.04;;;14.03;44.40
40372;BME280;28564;53.346;-6.554;2022-10-17T04:51:44;99308.17;;;13.78;44.32
40372;BME280;28564;53.346;-6.554;2022-10-17T04:54:11;99322.87;;;14.06;44.21
40372;BME280;28564;53.346;-6.554;2022-10-17T04:56:38;99318.85;;;14.07;44.22
40372;BME280;28564;53.346;-6.554;2022-10-17T04:59:06;99313.43;;;13.99;44.16
40372;BME280;28564;53.346;-6.554;2022-10-17T05:01:33;99325.58;;;13.68;44.17
40372;BME280;28564;53.346;-6.554;2022-10-17T05:04:00;99326.00;;;14.12;44.24
40372;BME280;28564;53.346;-6.554;2022-10-17T05:06:27;99330.01;;;13.86;44.24
40372;BME280;28564;53.346;-6.554;2022-10-17T05:08:54;99347.38;;;13.86;44.21
40372;BME280;28564;53.346;-6.554;2022-10-17T05:11:25;99349.51;;;13.86;44.29
40372;BME280;28564;53.346;-6.554;2022-10-17T05:13:53;99344.06;;;14.06;44.24
40372;BME280;28564;53.346;-6.554;2022-10-17T05:16:22;99340.28;;;13.77;44.20
40372;BME280;28564;53.346;-6.554;2022-10-17T05:18:51;99340.48;;;13.72;44.26
40372;BME280;28564;53.346;-6.554;2022-10-17T05:21:20;99345.91;;;13.90;44.28
40372;BME280;28564;53.346;-6.554;2022-10-17T05:23:48;99351.98;;;13.67;44.47
40372;BME280;28564;53.346;-6.554;2022-10-17T05:26:16;99366.60;;;13.68;44.54
40372;BME280;28564;53.346;-6.554;2022-10-17T05:28:44;99361.21;;;13.86;44.61
40372;BME280;28564;53.346;-6.554;2022-10-17T05:31:11;99379.88;;;13.68;44.64
40372;BME280;28564;53.346;-6.554;2022-10-17T05:33:39;99369.88;;;13.70;44.73
40372;BME280;28564;53.346;-6.554;2022-10-17T05:36:07;99386.99;;;13.72;44.69
40372;BME280;28564;53.346;-6.554;2022-10-17T05:38:34;99375.61;;;14.03;44.69
40372;BME280;28564;53.346;-6.554;2022-10-17T05:41:04;99396.53;;;13.86;44.65
40372;BME280;28564;53.346;-6.554;2022-10-17T05:43:33;99402.30;;;13.88;44.65
40372;BME280;28564;53.346;-6.554;2022-10-17T05:46:02;99393.43;;;13.93;44.54
40372;BME280;28564;53.346;-6.554;2022-10-17T05:48:30;99414.50;;;13.94;44.59
40372;BME280;28564;53.346;-6.554;2022-10-17T05:50:58;99403.71;;;13.94;44.65
40372;BME280;28564;53.346;-6.554;2022-10-17T05:53:29;99412.97;;;13.96;44.53
40372;BME280;28564;53.346;-6.554;2022-10-17T05:55:57;99419.96;;;14.18;44.49
40372;BME280;28564;53.346;-6.554;2022-10-17T05:58:26;99415.01;;;13.92;44.49
40372;BME280;28564;53.346;-6.554;2022-10-17T06:00:57;99444.76;;;13.64;44.61
40372;BME280;28564;53.346;-6.554;2022-10-17T06:03:24;99434.09;;;13.86;44.27
40372;BME280;28564;53.346;-6.554;2022-10-17T06:05:53;99439.04;;;13.83;44.35
40372;BME280;28564;53.346;-6.554;2022-10-17T06:08:20;99439.11;;;13.81;44.43
40372;BME280;28564;53.346;-6.554;2022-10-17T06:10:48;99436.76;;;13.77;44.42
40372;BME280;28564;53.346;-6.554;2022-10-17T06:13:15;99453.44;;;13.74;44.50
40372;BME280;28564;53.346;-6.554;2022-10-17T06:15:43;99456.78;;;13.94;44.55
40372;BME280;28564;53.346;-6.554;2022-10-17T06:18:11;99468.57;;;13.72;44.60
40372;BME280;28564;53.346;-6.554;2022-10-17T06:20:38;99455.99;;;13.71;44.65
40372;BME280;28564;53.346;-6.554;2022-10-17T06:23:06;99465.00;;;13.74;44.74
40372;BME280;28564;53.346;-6.554;2022-10-17T06:25:33;99474.76;;;13.73;44.83
40372;BME280;28564;53.346;-6.554;2022-10-17T06:28:01;99493.19;;;13.71;44.92
40372;BME280;28564;53.346;-6.554;2022-10-17T06:30:28;99488.26;;;13.69;44.87
40372;BME280;28564;53.346;-6.554;2022-10-17T06:32:55;99512.33;;;13.66;44.95
40372;BME280;28564;53.346;-6.554;2022-10-17T06:35:22;99493.77;;;13.82;45.00
40372;BME280;28564;53.346;-6.554;2022-10-17T06:37:50;99500.54;;;13.76;45.08
40372;BME280;28564;53.346;-6.554;2022-10-17T06:40:17;99505.23;;;13.49;45.24
40372;BME280;28564;53.346;-6.554;2022-10-17T06:42:44;99510.95;;;13.37;45.46
40372;BME280;28564;53.346;-6.554;2022-10-17T06:45:11;99518.63;;;13.62;45.47
40372;BME280;28564;53.346;-6.554;2022-10-17T06:47:38;99536.44;;;13.59;45.29
40372;BME280;28564;53.346;-6.554;2022-10-17T06:50:06;99527.78;;;13.71;45.23
40372;BME280;28564;53.346;-6.554;2022-10-17T06:52:33;99543.38;;;13.79;45.14
40372;BME280;28564;53.346;-6.554;2022-10-17T06:55:01;99550.23;;;13.62;45.05
40372;BME280;28564;53.346;-6.554;2022-10-17T06:57:28;99561.62;;;13.69;45.12
40372;BME280;28564;53.346;-6.554;2022-10-17T06:59:55;99568.78;;;13.74;45.03
40372;BME280;28564;53.346;-6.554;2022-10-17T07:02:23;99579.01;;;13.78;44.95
40372;BME280;28564;53.346;-6.554;2022-10-17T07:04:50;99589.10;;;13.81;45.02
40372;BME280;28564;53.346;-6.554;2022-10-17T07:07:17;99594.24;;;14.05;44.94
40372;BME280;28564;53.346;-6.554;2022-10-17T07:09:43;99600.68;;;13.84;44.84
40372;BME280;28564;53.346;-6.554;2022-10-17T07:12:11;99615.59;;;13.90;44.74
40372;BME280;28564;53.346;-6.554;2022-10-17T07:14:38;99630.55;;;13.96;44.68
40372;BME280;28564;53.346;-6.554;2022-10-17T07:17:05;99631.22;;;14.01;44.58
40372;BME280;28564;53.346;-6.554;2022-10-17T07:19:32;99640.29;;;13.84;44.40
40372;BME280;28564;53.346;-6.554;2022-10-17T07:21:59;99651.40;;;14.18;44.34
40372;BME280;28564;53.346;-6.554;2022-10-17T07:24:27;99658.78;;;14.21;44.32
40372;BME280;28564;53.346;-6.554;2022-10-17T07:26:54;99666.72;;;14.28;44.34
40372;BME280;28564;53.346;-6.554;2022-10-17T07:29:21;99675.51;;;14.08;44.25
40372;BME280;28564;53.346;-6.554;2022-10-17T07:31:48;99684.85;;;14.38;44.29
40372;BME280;28564;53.346;-6.554;2022-10-17T07:34:15;99692.60;;;13.95;44.05
40372;BME280;28564;53.346;-6.554;2022-10-17T07:36:42;99697.05;;;14.45;44.09
40372;BME280;28564;53.346;-6.554;2022-10-17T07:39:10;99700.54;;;13.95;44.23
40372;BME280;28564;53.346;-6.554;2022-10-17T07:41:37;99702.84;;;14.24;44.27
40372;BME280;28564;53.346;-6.554;2022-10-17T07:44:04;99710.96;;;14.27;44.26
40372;BME280;28564;53.346;-6.554;2022-10-17T07:46:31;99701.99;;;14.58;43.94
40372;BME280;28564;53.346;-6.554;2022-10-17T07:48:58;99717.81;;;14.33;43.98
40372;BME280;28564;53.346;-6.554;2022-10-17T07:51:26;99734.46;;;14.41;43.87
40372;BME280;28564;53.346;-6.554;2022-10-17T07:53:52;99721.32;;;14.71;43.68
40372;BME280;28564;53.346;-6.554;2022-10-17T07:56:20;99717.99;;;14.71;43.53
40372;BME280;28564;53.346;-6.554;2022-10-17T07:58:47;99729.69;;;14.18;43.69
40372;BME280;28564;53.346;-6.554;2022-10-17T08:01:14;99722.40;;;14.31;43.59
40372;BME280;28564;53.346;-6.554;2022-10-17T08:03:42;99731.97;;;14.26;43.62
40372;BME280;28564;53.346;-6.554;2022-10-17T08:06:11;99750.98;;;14.55;43.61
40372;BME280;28564;53.346;-6.554;2022-10-17T08:08:38;99754.18;;;14.36;43.67
40372;BME280;28564;53.346;-6.554;2022-10-17T08:11:08;99760.75;;;14.18;43.62
40372;BME280;28564;53.346;-6.554;2022-10-17T08:13:36;99759.07;;;14.45;43.46
40372;BME280;28564;53.346;-6.554;2022-10-17T08:16:05;99762.94;;;14.73;43.37
40372;BME280;28564;53.346;-6.554;2022-10-17T08:18:33;99775.37;;;14.82;43.17
40372;BME280;28564;53.346;-6.554;2022-10-17T08:21:01;99769.87;;;14.40;43.23
40372;BME280;28564;53.346;-6.554;2022-10-17T08:23:28;99781.94;;;14.69;43.24
40372;BME280;28564;53.346;-6.554;2022-10-17T08:25:58;99786.49;;;14.52;43.01
40372;BME280;28564;53.346;-6.554;2022-10-17T08:28:25;99797.46;;;14.59;42.87
40372;BME280;28564;53.346;-6.554;2022-10-17T08:31:00;99805.71;;;14.64;42.71
40372;BME280;28564;53.346;-6.554;2022-10-17T08:33:27;99822.09;;;14.53;42.66
40372;BME280;28564;53.346;-6.554;2022-10-17T08:35:54;99819.16;;;14.88;42.53
40372;BME280;28564;53.346;-6.554;2022-10-17T08:38:24;99817.67;;;14.97;42.62
40372;BME280;28564;53.346;-6.554;2022-10-17T08:40:51;99830.99;;;15.06;42.43
40372;BME280;28564;53.346;-6.554;2022-10-17T08:43:29;99854.31;;;15.14;42.35
40372;BME280;28564;53.346;-6.554;2022-10-17T08:46:00;99847.72;;;15.17;41.87
40372;BME280;28564;53.346;-6.554;2022-10-17T08:48:30;99873.85;;;15.15;42.13
40372;BME280;28564;53.346;-6.554;2022-10-17T08:51:02;99899.31;;;15.12;42.09
40372;BME280;28564;53.346;-6.554;2022-10-17T08:53:35;99880.24;;;15.16;42.11
40372;BME280;28564;53.346;-6.554;2022-10-17T08:56:10;99902.31;;;15.21;42.16
40372;BME280;28564;53.346;-6.554;2022-10-17T08:58:40;99891.43;;;15.25;42.20
40372;BME280;28564;53.346;-6.554;2022-10-17T09:04:03;99907.19;;;15.59;41.23
40372;BME280;28564;53.346;-6.554;2022-10-17T09:06:33;99908.62;;;15.56;40.99
40372;BME280;28564;53.346;-6.554;2022-10-17T09:09:17;99912.71;;;15.51;41.03
40372;BME280;28564;53.346;-6.554;2022-10-17T09:11:55;99919.73;;;15.23;41.18
40372;BME280;28564;53.346;-6.554;2022-10-17T09:14:37;99932.72;;;15.45;41.25
40372;BME280;28564;53.346;-6.554;2022-10-17T09:17:17;99924.73;;;15.49;41.74
40372;BME280;28564;53.346;-6.554;2022-10-17T09:19:56;99938.33;;;15.42;41.94
40372;BME280;28564;53.346;-6.554;2022-10-17T09:22:29;99957.72;;;15.26;42.07
40372;BME280;28564;53.346;-6.554;2022-10-17T09:25:02;99965.94;;;15.52;41.99
40372;BME280;28564;53.346;-6.554;2022-10-17T09:27:35;99958.91;;;15.67;41.80
40372;BME280;28564;53.346;-6.554;2022-10-17T09:30:41;99966.74;;;15.62;41.61
40372;BME280;28564;53.346;-6.554;2022-10-17T09:33:11;99973.90;;;15.83;41.07
40372;BME280;28564;53.346;-6.554;2022-10-17T09:35:40;99980.32;;;15.88;40.82
40372;BME280;28564;53.346;-6.554;2022-10-17T09:38:14;99989.52;;;15.95;40.98
40372;BME280;28564;53.346;-6.554;2022-10-17T09:40:42;99998.09;;;16.23;40.99
40372;BME280;28564;53.346;-6.554;2022-10-17T09:43:12;100004.00;;;16.09;41.10
40372;BME280;28564;53.346;-6.554;2022-10-17T09:45:44;100008.29;;;16.05;40.97
40372;BME280;28564;53.346;-6.554;2022-10-17T09:48:21;100025.49;;;16.05;41.05
40372;BME280;28564;53.346;-6.554;2022-10-17T09:50:51;100035.27;;;16.01;40.95
40372;BME280;28564;53.346;-6.554;2022-10-17T09:53:23;100044.92;;;15.98;41.21
40372;BME280;28564;53.346;-6.554;2022-10-17T09:55:54;100044.18;;;16.21;41.19
40372;BME280;28564;53.346;-6.554;2022-10-17T09:58:23;100060.72;;;16.02;41.34
40372;BME280;28564;53.346;-6.554;2022-10-17T10:01:16;100061.39;;;16.05;41.40
40372;BME280;28564;53.346;-6.554;2022-10-17T10:03:44;100076.95;;;15.83;41.28
40372;BME280;28564;53.346;-6.554;2022-10-17T10:06:14;100082.43;;;16.03;41.36
40372;BME280;28564;53.346;-6.554;2022-10-17T10:08:53;100095.69;;;16.02;41.49
40372;BME280;28564;53.346;-6.554;2022-10-17T10:11:23;100093.12;;;15.82;41.22
40372;BME280;28564;53.346;-6.554;2022-10-17T10:13:52;100094.32;;;15.91;41.21
40372;BME280;28564;53.346;-6.554;2022-10-17T10:16:21;100099.13;;;16.05;41.20
40372;BME280;28564;53.346;-6.554;2022-10-17T10:18:50;100105.32;;;16.12;40.94
40372;BME280;28564;53.346;-6.554;2022-10-17T10:21:19;100111.88;;;16.21;41.27
40372;BME280;28564;53.346;-6.554;2022-10-17T10:24:04;100111.96;;;16.33;41.36
40372;BME280;28564;53.346;-6.554;2022-10-17T10:26:37;100119.42;;;16.21;40.77
40372;BME280;28564;53.346;-6.554;2022-10-17T10:29:17;100144.45;;;16.85;40.42
40372;BME280;28564;53.346;-6.554;2022-10-17T10:31:46;100142.51;;;16.49;40.51
40372;BME280;28564;53.346;-6.554;2022-10-17T10:34:19;100170.77;;;16.53;40.45
40372;BME280;28564;53.346;-6.554;2022-10-17T10:36:54;100168.27;;;16.81;40.43
40372;BME280;28564;53.346;-6.554;2022-10-17T10:39:34;100159.76;;;16.53;40.50
40372;BME280;28564;53.346;-6.554;2022-10-17T10:42:05;100170.35;;;16.54;40.60
40372;BME280;28564;53.346;-6.554;2022-10-17T10:44:35;100183.42;;;16.64;40.57
40372;BME280;28564;53.346;-6.554;2022-10-17T10:47:21;100177.51;;;16.77;40.41
40372;BME280;28564;53.346;-6.554;2022-10-17T10:49:51;100209.72;;;17.08;40.45
40372;BME280;28564;53.346;-6.554;2022-10-17T10:52:28;100196.64;;;16.62;40.44
40372;BME280;28564;53.346;-6.554;2022-10-17T10:55:06;100220.51;;;16.89;40.25
40372;BME280;28564;53.346;-6.554;2022-10-17T10:57:41;100222.73;;;16.66;39.96
40372;BME280;28564;53.346;-6.554;2022-10-17T11:00:14;100241.70;;;17.18;39.97
40372;BME280;28564;53.346;-6.554;2022-10-17T11:02:50;100244.49;;;16.92;39.74
40372;BME280;28564;53.346;-6.554;2022-10-17T11:05:23;100238.76;;;17.13;39.80
40372;BME280;28564;53.346;-6.554;2022-10-17T11:07:58;100239.80;;;17.51;39.12
40372;BME280;28564;53.346;-6.554;2022-10-17T11:10:34;100248.76;;;17.45;38.75
40372;BME280;28564;53.346;-6.554;2022-10-17T11:13:08;100270.83;;;17.56;39.05
40372;BME280;28564;53.346;-6.554;2022-10-17T11:15:43;100274.22;;;17.65;38.72
40372;BME280;28564;53.346;-6.554;2022-10-17T11:18:20;100292.82;;;17.70;38.67
40372;BME280;28564;53.346;-6.554;2022-10-17T11:20:53;100287.27;;;17.68;38.85
40372;BME280;28564;53.346;-6.554;2022-10-17T11:23:30;100306.43;;;17.95;38.08
40372;BME280;28564;53.346;-6.554;2022-10-17T11:26:06;100304.84;;;18.30;37.45
40372;BME280;28564;53.346;-6.554;2022-10-17T11:28:35;100326.39;;;18.41;37.21
40372;BME280;28564;53.346;-6.554;2022-10-17T11:31:06;100312.20;;;18.15;37.10
40372;BME280;28564;53.346;-6.554;2022-10-17T11:33:42;100324.26;;;18.29;37.57
40372;BME280;28564;53.346;-6.554;2022-10-17T11:36:12;100339.37;;;17.97;37.12
40372;BME280;28564;53.346;-6.554;2022-10-17T11:38:45;100334.95;;;17.97;37.14
40372;BME280;28564;53.346;-6.554;2022-10-17T11:41:19;100347.53;;;18.20;37.25
40372;BME280;28564;53.346;-6.554;2022-10-17T11:43:52;100357.89;;;18.00;36.88
40372;BME280;28564;53.346;-6.554;2022-10-17T11:46:23;100353.51;;;18.75;37.14
40372;BME280;28564;53.346;-6.554;2022-10-17T11:48:59;100354.65;;;18.57;36.87
40372;BME280;28564;53.346;-6.554;2022-10-17T11:51:30;100370.13;;;18.29;36.29
40372;BME280;28564;53.346;-6.554;2022-10-17T11:54:12;100381.53;;;18.29;36.38
40372;BME280;28564;53.346;-6.554;2022-10-17T11:56:45;100407.67;;;18.51;36.20
40372;BME280;28564;53.346;-6.554;2022-10-17T11:59:59;100396.01;;;18.22;36.16
40372;BME280;28564;53.346;-6.554;2022-10-17T12:02:35;100409.57;;;18.10;37.01
40372;BME280;28564;53.346;-6.554;2022-10-17T12:05:18;100410.59;;;17.65;37.07
40372;BME280;28564;53.346;-6.554;2022-10-17T12:07:50;100406.61;;;17.91;37.46
40372;BME280;28564;53.346;-6.554;2022-10-17T12:10:30;100420.54;;;17.78;37.72
40372;BME280;28564;53.346;-6.554;2022-10-17T12:13:46;100431.56;;;17.73;37.99
40372;BME280;28564;53.346;-6.554;2022-10-17T12:16:50;100433.27;;;17.78;37.81
40372;BME280;28564;53.346;-6.554;2022-10-17T12:19:26;100439.52;;;17.92;37.40
40372;BME280;28564;53.346;-6.554;2022-10-17T12:21:55;100448.96;;;18.06;36.83
40372;BME280;28564;53.346;-6.554;2022-10-17T12:24:33;100450.24;;;18.70;35.87
40372;BME280;28564;53.346;-6.554;2022-10-17T12:27:23;100440.14;;;19.55;34.09
40372;BME280;28564;53.346;-6.554;2022-10-17T12:29:59;100440.02;;;20.52;32.57
40372;BME280;28564;53.346;-6.554;2022-10-17T12:32:27;100450.71;;;20.71;32.50
40372;BME280;28564;53.346;-6.554;2022-10-17T12:34:56;100461.75;;;21.26;32.24
40372;BME280;28564;53.346;-6.554;2022-10-17T12:38:28;100451.62;;;22.47;31.09
40372;BME280;28564;53.346;-6.554;2022-10-17T12:41:00;100450.10;;;23.97;29.40
40372;BME280;28564;53.346;-6.554;2022-10-17T12:43:35;100456.20;;;24.30;27.87
40372;BME280;28564;53.346;-6.554;2022-10-17T12:46:03;100472.41;;;24.93;26.56
40372;BME280;28564;53.346;-6.554;2022-10-17T12:49:13;100464.26;;;25.49;25.48
40372;BME280;28564;53.346;-6.554;2022-10-17T12:52:22;100475.86;;;27.01;24.36
40372;BME280;28564;53.346;-6.554;2022-10-17T12:54:57;100496.34;;;27.23;23.92
40372;BME280;28564;53.346;-6.554;2022-10-17T12:57:31;100503.32;;;25.24;25.51
40372;BME280;28564;53.346;-6.554;2022-10-17T13:00:03;100509.31;;;23.39;26.92
40372;BME280;28564;53.346;-6.554;2022-10-17T13:02:32;100517.06;;;22.14;28.76
40372;BME280;28564;53.346;-6.554;2022-10-17T13:05:06;100531.63;;;21.11;30.71
40372;BME280;28564;53.346;-6.554;2022-10-17T13:07:35;100523.05;;;20.76;31.81
40372;BME280;28564;53.346;-6.554;2022-10-17T13:10:03;100523.92;;;20.43;32.70
40372;BME280;28564;53.346;-6.554;2022-10-17T13:12:35;100514.95;;;19.83;33.33
40372;BME280;28564;53.346;-6.554;2022-10-17T13:15:05;100509.75;;;21.24;31.76